createdAt,value
2022-10-04T00:02:29.971Z,9.20
2022-10-04T00:05:04.455Z,7.65
2022-10-04T00:07:35.308Z,5.90
2022-10-04T00:10:16.440Z,7.68
2022-10-04T00:12:49.309Z,5.25
2022-10-04T00:15:21.990Z,5.88
2022-10-04T00:18:05.909Z,5.50
2022-10-04T00:20:58.959Z,2.22
2022-10-04T00:23:30.590Z,6.80
2022-10-04T00:26:01.957Z,7.20
2022-10-04T00:28:43.461Z,5.20
2022-10-04T00:31:23.155Z,7.57
2022-10-04T00:33:57.207Z,3.70
2022-10-04T00:36:53.554Z,5.28
2022-10-04T00:39:42.308Z,4.55
2022-10-04T00:42:37.193Z,4.82
2022-10-04T00:45:14.065Z,5.22
2022-10-04T00:48:10.969Z,4.80
2022-10-04T00:50:44.152Z,4.57
2022-10-04T00:53:19.220Z,4.00
2022-10-04T00:55:52.161Z,6.13
2022-10-04T00:58:24.725Z,3.60
2022-10-04T01:00:55.516Z,5.30
2022-10-04T01:03:29.039Z,7.63
2022-10-04T01:06:00.721Z,3.78
2022-10-04T01:08:33.649Z,8.05
2022-10-04T01:11:06.430Z,6.18
2022-10-04T01:13:40.133Z,4.70
2022-10-04T01:16:14.677Z,4.20
2022-10-04T01:18:43.006Z,9.35
2022-10-04T01:21:27.339Z,3.75
2022-10-04T01:24:17.407Z,4.75
2022-10-04T01:26:45.976Z,4.60
2022-10-04T01:29:17.457Z,3.78
2022-10-04T01:31:47.795Z,5.82
2022-10-04T01:34:18.351Z,5.07
2022-10-04T01:36:48.878Z,7.82
2022-10-04T01:39:20.523Z,7.78
2022-10-04T01:41:54.467Z,8.55
2022-10-04T01:44:28.360Z,7.50
2022-10-04T01:46:59.632Z,7.60
2022-10-04T01:49:30.830Z,8.60
2022-10-04T01:52:03.842Z,8.88
2022-10-04T01:54:42.049Z,10.55
2022-10-04T01:57:16.180Z,8.07
2022-10-04T01:59:50.355Z,9.25
2022-10-04T02:02:27.017Z,5.30
2022-10-04T02:07:26.620Z,6.30
2022-10-04T02:10:01.453Z,6.75
2022-10-04T02:12:34.343Z,6.57
2022-10-04T02:15:06.275Z,6.97
2022-10-04T02:17:39.770Z,6.88
2022-10-04T02:20:13.597Z,4.55
2022-10-04T02:22:43.417Z,5.90
2022-10-04T02:25:14.934Z,5.00
2022-10-04T02:27:44.121Z,4.75
2022-10-04T02:30:14.132Z,4.55
2022-10-04T02:32:59.975Z,5.68
2022-10-04T02:35:30.430Z,5.63
2022-10-04T02:38:13.102Z,4.50
2022-10-04T02:40:50.465Z,5.90
2022-10-04T02:43:23.092Z,4.40
2022-10-04T02:45:55.632Z,4.05
2022-10-04T02:48:32.466Z,4.22
2022-10-04T02:51:07.183Z,5.45
2022-10-04T02:53:44.204Z,3.28
2022-10-04T02:56:14.143Z,5.40
2022-10-04T02:58:42.795Z,2.95
2022-10-04T03:01:18.681Z,5.28
2022-10-04T03:03:47.934Z,4.88
2022-10-04T03:06:20.035Z,2.72
2022-10-04T03:08:51.689Z,4.57
2022-10-04T03:11:23.700Z,3.65
2022-10-04T03:13:54.515Z,5.65
2022-10-04T03:16:24.016Z,2.92
2022-10-04T03:18:53.593Z,5.43
2022-10-04T03:21:23.473Z,7.70
2022-10-04T03:23:52.412Z,4.45
2022-10-04T03:26:33.022Z,3.70
2022-10-04T03:29:01.398Z,4.70
2022-10-04T03:31:30.208Z,2.85
2022-10-04T03:33:58.987Z,2.42
2022-10-04T03:36:27.895Z,1.60
2022-10-04T03:38:57.709Z,2.95
2022-10-04T03:41:27.647Z,3.35
2022-10-04T03:43:58.608Z,4.03
2022-10-04T03:46:29.901Z,3.50
2022-10-04T03:48:58.901Z,2.58
2022-10-04T03:51:27.971Z,2.78
2022-10-04T03:53:58.531Z,4.22
2022-10-04T03:56:31.093Z,2.65
2022-10-04T03:58:59.440Z,3.47
2022-10-04T04:01:40.086Z,1.95
2022-10-04T04:04:18.842Z,1.48
2022-10-04T04:06:52.731Z,1.83
2022-10-04T04:09:25.257Z,2.33
2022-10-04T04:11:57.181Z,3.85
2022-10-04T04:14:27.090Z,2.42
2022-10-04T04:17:29.852Z,2.28
2022-10-04T04:20:03.472Z,3.92
2022-10-04T04:22:35.672Z,2.08
2022-10-04T04:25:08.547Z,2.47
2022-10-04T04:27:42.210Z,2.63
2022-10-04T04:30:17.981Z,2.63
2022-10-04T04:32:50.429Z,5.10
2022-10-04T04:35:24.276Z,5.35
2022-10-04T04:38:17.760Z,7.13
2022-10-04T04:40:46.131Z,9.68
2022-10-04T04:43:20.161Z,7.50
2022-10-04T04:46:03.042Z,6.50
2022-10-04T04:48:37.701Z,7.28
2022-10-04T04:51:06.173Z,6.35
2022-10-04T04:53:34.967Z,5.85
2022-10-04T04:56:05.152Z,7.53
2022-10-04T04:58:38.301Z,5.65
2022-10-04T05:01:13.660Z,6.60
2022-10-04T05:03:42.444Z,6.07
2022-10-04T05:06:25.612Z,4.10
2022-10-04T05:08:53.753Z,6.18
2022-10-04T05:11:24.402Z,6.07
2022-10-04T05:13:57.983Z,5.35
2022-10-04T05:16:32.368Z,7.43
2022-10-04T05:19:03.492Z,4.28
2022-10-04T05:21:33.752Z,6.35
2022-10-04T05:24:11.152Z,4.85
2022-10-04T05:26:41.856Z,6.20
2022-10-04T05:29:16.874Z,6.13
2022-10-04T05:31:51.017Z,7.47
2022-10-04T05:34:23.631Z,7.25
2022-10-04T05:37:06.941Z,6.10
2022-10-04T05:39:43.034Z,7.97
2022-10-04T05:42:20.094Z,5.15
2022-10-04T05:44:52.252Z,4.38
2022-10-04T05:47:24.292Z,10.07
2022-10-04T05:49:54.592Z,7.53
2022-10-04T05:52:33.491Z,6.57
2022-10-04T05:55:28.604Z,10.18
2022-10-04T05:58:25.572Z,11.13
2022-10-04T06:01:17.656Z,8.32
2022-10-04T06:04:00.381Z,9.32
2022-10-04T06:06:38.702Z,12.50
2022-10-04T06:09:14.332Z,9.38
2022-10-04T06:11:53.663Z,9.45
2022-10-04T06:14:46.041Z,9.43
2022-10-04T06:17:45.291Z,9.90
2022-10-04T06:20:36.197Z,6.93
2022-10-04T06:23:12.283Z,7.47
2022-10-04T06:25:46.443Z,6.93
2022-10-04T06:28:19.424Z,8.48
2022-10-04T06:31:10.463Z,7.95
2022-10-04T06:33:59.168Z,4.88
2022-10-04T06:37:00.298Z,3.75
2022-10-04T06:39:52.690Z,9.05
2022-10-04T06:42:47.172Z,7.07
2022-10-04T06:45:35.357Z,4.72
2022-10-04T06:48:22.934Z,4.80
2022-10-04T06:51:02.390Z,5.93
2022-10-04T06:53:39.691Z,7.53
2022-10-04T06:56:31.211Z,3.97
2022-10-04T06:59:22.697Z,5.00
2022-10-04T07:01:53.751Z,6.22
2022-10-04T07:04:41.103Z,3.75
2022-10-04T07:07:35.702Z,5.22
2022-10-04T07:10:24.591Z,7.20
2022-10-04T07:13:06.150Z,5.95
2022-10-04T07:15:43.458Z,5.15
2022-10-04T07:18:18.711Z,5.70
2022-10-04T07:20:49.342Z,4.32
2022-10-04T07:23:28.521Z,5.38
2022-10-04T07:26:01.514Z,6.75
2022-10-04T07:28:52.271Z,4.72
2022-10-04T07:31:28.349Z,5.35
2022-10-04T07:34:00.342Z,6.38
2022-10-04T07:36:31.712Z,5.63
2022-10-04T07:39:06.930Z,5.35
2022-10-04T07:41:39.118Z,4.45
2022-10-04T07:44:16.409Z,7.35
2022-10-04T07:46:50.229Z,7.28
2022-10-04T07:49:20.210Z,5.78
2022-10-04T07:52:13.223Z,7.25
2022-10-04T07:54:47.581Z,11.75
2022-10-04T07:57:22.124Z,9.43
2022-10-04T07:59:58.417Z,9.25
2022-10-04T08:02:41.582Z,9.30
2022-10-04T08:05:23.480Z,10.38
2022-10-04T08:08:09.338Z,10.80
2022-10-04T08:10:52.124Z,9.43
2022-10-04T08:13:28.371Z,8.52
2022-10-04T08:16:02.362Z,7.88
2022-10-04T08:18:47.201Z,7.18
2022-10-04T08:21:21.765Z,6.18
2022-10-04T08:24:05.139Z,7.65
2022-10-04T08:26:53.388Z,5.90
2022-10-04T08:29:43.181Z,7.05
2022-10-04T08:32:36.674Z,4.40
2022-10-04T08:35:36.805Z,5.60
2022-10-04T08:38:21.491Z,4.50
2022-10-04T08:41:27.747Z,7.40
2022-10-04T08:44:32.484Z,7.28
2022-10-04T08:47:43.472Z,5.22
2022-10-04T08:50:44.659Z,6.25
2022-10-04T08:53:45.938Z,3.20
2022-10-04T08:56:38.689Z,4.63
2022-10-04T08:59:36.221Z,4.35
2022-10-04T09:02:37.598Z,2.58
2022-10-04T09:05:29.487Z,4.97
2022-10-04T09:08:18.532Z,6.72
2022-10-04T09:11:00.930Z,8.10
2022-10-04T09:13:45.616Z,3.38
2022-10-04T09:16:19.400Z,3.70
2022-10-04T09:18:58.306Z,4.68
2022-10-04T09:21:43.073Z,3.95
2022-10-04T09:24:35.782Z,4.85
2022-10-04T09:27:36.806Z,3.63
2022-10-04T09:30:15.801Z,2.13
2022-10-04T09:33:26.197Z,5.10
2022-10-04T09:36:23.729Z,2.63
2022-10-04T09:39:30.288Z,3.50
2022-10-04T09:42:21.514Z,4.18
2022-10-04T09:45:33.594Z,4.10
2022-10-04T09:48:30.036Z,3.55
2022-10-04T09:51:42.227Z,4.90
2022-10-04T09:54:34.334Z,4.20
2022-10-04T09:57:28.273Z,5.03
2022-10-04T10:00:10.062Z,4.75
2022-10-04T10:03:28.242Z,3.40
2022-10-04T10:06:22.722Z,2.63
2022-10-04T10:09:06.110Z,3.95
2022-10-04T10:12:03.771Z,3.78
2022-10-04T10:14:55.862Z,3.75
2022-10-04T10:17:36.653Z,6.38
2022-10-04T10:20:31.733Z,3.90
2022-10-04T10:23:22.011Z,3.08
2022-10-04T10:26:23.101Z,3.47
2022-10-04T10:29:17.538Z,1.98
2022-10-04T10:32:09.472Z,3.33
2022-10-04T10:35:16.767Z,3.47
2022-10-04T10:38:03.611Z,3.85
2022-10-04T10:40:46.320Z,5.93
2022-10-04T10:43:36.987Z,3.65
2022-10-04T10:46:23.762Z,3.97
2022-10-04T10:49:04.976Z,3.03
2022-10-04T10:52:06.429Z,5.07
2022-10-04T10:55:00.089Z,2.60
2022-10-04T10:57:59.062Z,3.13
2022-10-04T11:00:45.026Z,2.80
2022-10-04T11:03:44.199Z,3.47
2022-10-04T11:06:29.706Z,3.08
2022-10-04T11:09:29.916Z,2.58
2022-10-04T11:12:17.901Z,3.67
2022-10-04T11:15:09.818Z,3.53
2022-10-04T11:18:04.669Z,3.22
2022-10-04T11:21:15.946Z,2.50
2022-10-04T11:24:19.866Z,4.88
2022-10-04T11:27:11.090Z,4.47
2022-10-04T11:29:55.476Z,3.03
2022-10-04T11:32:54.885Z,2.80
2022-10-04T11:35:53.658Z,4.35
2022-10-04T11:38:34.286Z,2.15
2022-10-04T11:41:15.866Z,2.25
2022-10-04T11:44:15.035Z,4.15
2022-10-04T11:46:53.551Z,2.45
2022-10-04T11:49:50.743Z,2.65
2022-10-04T11:52:45.017Z,3.17
2022-10-04T11:55:54.479Z,2.47
2022-10-04T11:58:34.506Z,3.55
2022-10-04T12:01:32.396Z,2.85
2022-10-04T12:04:31.833Z,2.95
2022-10-04T12:07:22.986Z,2.08
2022-10-04T12:10:02.165Z,2.92
2022-10-04T12:12:54.375Z,2.45
2022-10-04T12:15:41.825Z,2.33
2022-10-04T12:18:55.845Z,4.43
2022-10-04T12:22:03.624Z,2.70
2022-10-04T12:27:59.923Z,2.15
2022-10-04T12:30:39.667Z,2.72
2022-10-04T12:33:17.065Z,1.52
2022-10-04T12:35:59.287Z,2.05
2022-10-04T12:38:50.424Z,1.25
2022-10-04T12:41:31.105Z,2.08
2022-10-04T12:44:13.513Z,1.70
2022-10-04T12:46:55.105Z,1.23
2022-10-04T12:49:35.195Z,1.70
2022-10-04T12:52:11.277Z,1.92
2022-10-04T12:54:44.136Z,1.20
2022-10-04T12:57:41.311Z,1.17
2022-10-04T13:00:19.407Z,2.00
2022-10-04T13:03:24.967Z,3.15
2022-10-04T13:06:03.325Z,2.80
2022-10-04T13:08:53.856Z,3.05
2022-10-04T13:11:52.596Z,1.85
2022-10-04T13:14:50.882Z,4.13
2022-10-04T13:17:35.864Z,1.00
2022-10-04T13:20:23.810Z,1.65
2022-10-04T13:22:58.983Z,1.13
2022-10-04T13:25:45.879Z,2.25
2022-10-04T13:28:23.788Z,1.27
2022-10-04T13:31:01.848Z,1.70
2022-10-04T13:33:41.830Z,3.65
2022-10-04T13:36:18.201Z,2.70
2022-10-04T13:39:07.549Z,2.10
2022-10-04T13:41:54.763Z,2.85
2022-10-04T13:44:46.061Z,2.08
2022-10-04T13:47:36.793Z,2.15
2022-10-04T13:50:27.003Z,2.97
2022-10-04T13:53:27.249Z,2.28
2022-10-04T13:56:20.493Z,2.90
2022-10-04T13:58:53.984Z,2.95
2022-10-04T14:02:02.231Z,2.65
2022-10-04T14:05:09.616Z,3.28
2022-10-04T14:08:21.625Z,3.47
2022-10-04T14:11:21.693Z,5.03
2022-10-04T14:14:13.351Z,2.25
2022-10-04T14:17:11.913Z,2.15
2022-10-04T14:20:07.143Z,2.25
2022-10-04T14:23:00.905Z,1.40
2022-10-04T14:26:10.764Z,2.78
2022-10-04T14:29:14.823Z,2.22
2022-10-04T14:32:13.648Z,2.80
2022-10-04T14:35:02.054Z,2.72
2022-10-04T14:38:08.354Z,2.20
2022-10-04T14:41:37.182Z,2.20
2022-10-04T14:44:45.449Z,2.53
2022-10-04T14:51:06.113Z,4.85
2022-10-04T14:53:42.452Z,2.80
2022-10-04T14:56:58.122Z,3.05
2022-10-04T14:59:47.721Z,4.03
2022-10-04T15:02:44.073Z,5.95
2022-10-04T15:05:35.923Z,3.73
2022-10-04T15:08:34.846Z,4.57
2022-10-04T15:11:06.797Z,4.88
2022-10-04T15:13:41.408Z,2.38
2022-10-04T15:16:17.968Z,11.13
2022-10-04T15:18:52.799Z,35.28
2022-10-04T15:21:52.269Z,41.13
2022-10-04T15:24:27.763Z,18.35
2022-10-04T15:27:31.831Z,8.33
2022-10-04T15:30:10.880Z,6.25
2022-10-04T15:32:47.379Z,7.05
2022-10-04T15:35:25.388Z,4.68
2022-10-04T15:37:59.307Z,6.25
2022-10-04T15:40:38.536Z,10.35
2022-10-04T15:43:18.944Z,12.30
2022-10-04T15:46:27.531Z,8.48
2022-10-04T15:49:31.821Z,4.72
2022-10-04T15:52:26.841Z,6.35
2022-10-04T15:55:21.854Z,3.53
2022-10-04T15:58:15.612Z,7.07
2022-10-04T16:00:54.166Z,7.60
2022-10-04T16:03:40.679Z,4.00
2022-10-04T16:06:12.820Z,6.25
2022-10-04T16:08:58.507Z,3.88
2022-10-04T16:11:39.220Z,3.28
2022-10-04T16:14:29.728Z,7.45
2022-10-04T16:17:12.879Z,4.47
2022-10-04T16:20:15.270Z,5.35
2022-10-04T16:23:26.827Z,4.07
2022-10-04T16:25:56.549Z,6.05
2022-10-04T16:28:44.906Z,4.97
2022-10-04T16:31:27.420Z,6.18
2022-10-04T16:34:04.201Z,5.45
2022-10-04T16:40:06.133Z,6.15
2022-10-04T16:42:47.420Z,2.88
2022-10-04T16:45:46.639Z,5.35
2022-10-04T16:48:29.750Z,4.63
2022-10-04T16:51:26.359Z,5.95
2022-10-04T16:53:59.914Z,11.67
2022-10-04T16:56:30.014Z,6.68
2022-10-04T16:59:00.973Z,10.95
2022-10-04T17:02:07.093Z,6.60
2022-10-04T17:05:08.055Z,7.90
2022-10-04T17:07:53.212Z,6.85
2022-10-04T17:10:34.518Z,6.53
2022-10-04T17:13:16.897Z,4.43
2022-10-04T17:15:49.370Z,4.72
2022-10-04T17:18:31.444Z,4.75
2022-10-04T17:21:06.293Z,3.88
2022-10-04T17:24:00.467Z,7.47
2022-10-04T17:26:47.732Z,5.80
2022-10-04T17:29:37.244Z,4.82
2022-10-04T17:32:17.168Z,3.25
2022-10-04T17:34:58.716Z,7.75
2022-10-04T17:37:36.478Z,2.55
2022-10-04T17:40:41.466Z,6.45
2022-10-04T17:43:21.874Z,6.80
2022-10-04T17:46:17.901Z,6.97
2022-10-04T17:49:08.579Z,6.47
2022-10-04T17:52:13.660Z,7.07
2022-10-04T17:55:05.818Z,6.10
2022-10-04T17:57:43.668Z,5.78
2022-10-04T18:00:13.674Z,6.47
2022-10-04T18:03:07.907Z,8.15
2022-10-04T18:05:47.013Z,10.35
2022-10-04T18:08:21.354Z,5.60
2022-10-04T18:10:52.626Z,5.40
2022-10-04T18:13:29.043Z,8.48
2022-10-04T18:16:04.501Z,8.73
2022-10-04T18:18:51.199Z,9.68
2022-10-04T18:21:22.459Z,6.72
2022-10-04T18:23:56.264Z,8.02
2022-10-04T18:26:28.466Z,7.60
2022-10-04T18:28:58.001Z,7.82
2022-10-04T18:31:38.620Z,11.52
2022-10-04T18:34:20.249Z,12.93
2022-10-04T18:36:56.914Z,10.85
2022-10-04T18:39:25.451Z,13.93
2022-10-04T18:42:12.554Z,12.00
2022-10-04T18:44:47.749Z,10.82
2022-10-04T18:47:21.395Z,12.30
2022-10-04T18:49:52.498Z,15.20
2022-10-04T18:52:32.847Z,13.40
2022-10-04T18:55:14.152Z,12.02
2022-10-04T18:58:07.278Z,13.57
2022-10-04T19:01:02.584Z,11.77
2022-10-04T19:03:38.625Z,13.10
2022-10-04T19:06:16.681Z,10.10
2022-10-04T19:08:58.222Z,11.43
2022-10-04T19:11:33.713Z,11.95
2022-10-04T19:14:08.834Z,12.02
2022-10-04T19:16:44.101Z,11.90
2022-10-04T19:19:32.251Z,11.23
2022-10-04T19:22:03.761Z,12.20
2022-10-04T19:25:00.870Z,14.55
2022-10-04T19:27:36.776Z,12.82
2022-10-04T19:30:15.984Z,8.02
2022-10-04T19:33:00.258Z,8.35
2022-10-04T19:35:40.849Z,6.70
2022-10-04T19:38:26.583Z,10.73
2022-10-04T19:41:01.838Z,15.65
2022-10-04T19:43:42.672Z,14.18
2022-10-04T19:46:24.201Z,20.02
2022-10-04T19:48:53.780Z,18.55
2022-10-04T19:51:28.611Z,22.00
2022-10-04T19:54:04.058Z,19.60
2022-10-04T19:56:36.218Z,15.68
2022-10-04T19:59:12.058Z,13.60
2022-10-04T20:01:41.587Z,12.73
2022-10-04T20:04:33.324Z,15.65
2022-10-04T20:07:02.698Z,14.10
2022-10-04T20:09:51.815Z,13.98
2022-10-04T20:12:33.245Z,12.48
2022-10-04T20:15:39.130Z,15.15
2022-10-04T20:19:05.923Z,15.10
2022-10-04T20:21:34.269Z,16.67
2022-10-04T20:24:02.674Z,15.20
2022-10-04T20:27:01.551Z,12.80
2022-10-04T20:30:04.425Z,11.98
2022-10-04T20:32:57.780Z,12.73
2022-10-04T20:36:09.441Z,9.48
2022-10-04T20:38:52.010Z,8.00
2022-10-04T20:42:03.907Z,8.52
2022-10-04T20:45:04.207Z,7.93
2022-10-04T20:47:39.770Z,8.00
2022-10-04T20:50:19.021Z,8.93
2022-10-04T20:52:48.799Z,9.43
2022-10-04T20:55:28.354Z,10.38
2022-10-04T20:58:01.908Z,8.02
2022-10-04T21:00:34.118Z,5.85
2022-10-04T21:03:16.676Z,8.60
2022-10-04T21:05:49.870Z,8.00
2022-10-04T21:08:25.840Z,7.97
2022-10-04T21:11:13.274Z,7.57
2022-10-04T21:13:52.998Z,8.55
2022-10-04T21:16:41.645Z,10.27
2022-10-04T21:19:48.917Z,6.97
2022-10-04T21:22:40.512Z,10.90
2022-10-04T21:25:32.304Z,7.93
2022-10-04T21:28:39.546Z,9.30
2022-10-04T21:31:09.135Z,9.90
2022-10-04T21:33:37.466Z,9.52
2022-10-04T21:36:06.164Z,12.80
2022-10-04T21:38:34.086Z,8.98
2022-10-04T21:41:01.946Z,10.43
2022-10-04T21:43:29.973Z,9.45
2022-10-04T21:45:58.125Z,12.45
2022-10-04T21:48:27.673Z,10.15
2022-10-04T21:50:55.605Z,9.30
2022-10-04T21:53:32.715Z,15.25
2022-10-04T21:56:00.651Z,9.55
2022-10-04T21:58:28.360Z,10.80
2022-10-04T22:00:56.640Z,10.30
2022-10-04T22:03:24.542Z,8.77
2022-10-04T22:05:53.794Z,9.35
2022-10-04T22:08:21.885Z,8.73
2022-10-04T22:10:52.231Z,7.38
2022-10-04T22:13:22.366Z,12.27
2022-10-04T22:15:50.363Z,6.57
2022-10-04T22:18:18.277Z,7.22
2022-10-04T22:20:46.021Z,8.07
2022-10-04T22:23:19.594Z,5.93
2022-10-04T22:25:47.670Z,7.70
2022-10-04T22:28:21.949Z,6.45
2022-10-04T22:30:50.618Z,5.03
2022-10-04T22:33:29.052Z,7.70
2022-10-04T22:35:58.106Z,6.85
2022-10-04T22:38:27.163Z,6.35
2022-10-04T22:40:55.530Z,7.18
2022-10-04T22:43:23.137Z,10.68
2022-10-04T22:45:51.819Z,7.07
2022-10-04T22:48:19.469Z,8.90
2022-10-04T22:50:47.274Z,9.13
2022-10-04T22:53:20.035Z,7.13
2022-10-04T22:55:50.082Z,7.15
2022-10-04T22:58:18.460Z,10.48
2022-10-04T23:00:46.184Z,7.20
2022-10-04T23:03:25.181Z,11.00
2022-10-04T23:05:53.143Z,10.95
2022-10-04T23:08:20.825Z,6.28
2022-10-04T23:10:54.767Z,9.25
2022-10-04T23:13:24.844Z,10.20
2022-10-04T23:15:55.425Z,8.65
2022-10-04T23:18:23.697Z,7.43
2022-10-04T23:20:58.190Z,10.27
2022-10-04T23:23:28.410Z,14.57
2022-10-04T23:25:57.819Z,12.88
2022-10-04T23:28:25.947Z,10.02
2022-10-04T23:31:05.789Z,8.98
2022-10-04T23:33:34.310Z,11.38
2022-10-04T23:36:01.957Z,10.85
2022-10-04T23:38:31.324Z,9.00
2022-10-04T23:41:00.894Z,9.45
2022-10-04T23:43:31.921Z,13.50
2022-10-04T23:46:00.289Z,9.95
2022-10-04T23:51:05.631Z,7.18
2022-10-04T23:53:34.269Z,7.15
2022-10-04T23:56:09.336Z,9.18
2022-10-04T23:58:39.961Z,11.23
